createdAt,value
2023-04-16T00:00:58.787Z,97156.41
2023-04-16T00:03:25.634Z,97163.13
2023-04-16T00:05:55.647Z,97152.81
2023-04-16T00:08:24.407Z,97160.69
2023-04-16T00:10:51.808Z,97161.88
2023-04-16T00:13:18.438Z,97164.97
2023-04-16T00:15:44.996Z,97164.97
2023-04-16T00:18:11.639Z,97170.03
2023-04-16T00:20:38.163Z,97166.28
2023-04-16T00:23:04.663Z,97164.53
2023-04-16T00:25:31.239Z,97167.56
2023-04-16T00:27:57.672Z,97170.53
2023-04-16T00:30:24.299Z,97160.28
2023-04-16T00:32:50.783Z,97172.66
2023-04-16T00:35:17.349Z,97173.63
2023-04-16T00:37:44.712Z,97167.84
2023-04-16T00:40:11.748Z,97179.19
2023-04-16T00:42:38.291Z,97178.38
2023-04-16T00:45:05.598Z,97171.13
2023-04-16T00:47:32.156Z,97166.53
2023-04-16T00:49:58.695Z,97169.16
2023-04-16T00:52:26.004Z,97171.34
2023-04-16T00:54:53.722Z,97175.03
2023-04-16T00:57:21.125Z,97176.66
2023-04-16T00:59:47.685Z,97177.47
2023-04-16T01:02:14.366Z,97176.69
2023-04-16T01:04:41.285Z,97172.81
2023-04-16T01:07:07.824Z,97169.81
2023-04-16T01:09:34.288Z,97179.75
2023-04-16T01:12:03.424Z,97177.31
2023-04-16T01:14:31.717Z,97178.53
2023-04-16T01:16:58.183Z,97185.13
2023-04-16T01:19:24.693Z,97184.38
2023-04-16T01:21:51.526Z,97190.00
2023-04-16T01:24:18.059Z,97199.88
2023-04-16T01:26:44.489Z,97197.28
2023-04-16T01:29:11.405Z,97199.41
2023-04-16T01:31:38.022Z,97205.59
2023-04-16T01:34:09.680Z,97201.50
2023-04-16T01:36:36.299Z,97196.38
2023-04-16T01:39:03.239Z,97200.41
2023-04-16T01:41:31.109Z,97204.66
2023-04-16T01:43:57.684Z,97206.25
2023-04-16T01:46:27.303Z,97206.53
2023-04-16T01:48:54.818Z,97207.69
2023-04-16T01:51:21.666Z,97209.31
2023-04-16T01:53:48.128Z,97215.19
2023-04-16T01:56:14.586Z,97217.03
2023-04-16T01:58:42.785Z,97207.19
2023-04-16T02:01:09.740Z,97208.34
2023-04-16T02:03:37.326Z,97214.69
2023-04-16T02:06:04.251Z,97214.00
2023-04-16T02:08:30.781Z,97212.38
2023-04-16T02:10:57.533Z,97205.94
2023-04-16T02:13:26.119Z,97214.59
2023-04-16T02:15:52.753Z,97220.69
2023-04-16T02:18:34.255Z,97215.91
2023-04-16T02:21:01.192Z,97216.41
2023-04-16T02:23:27.877Z,97219.00
2023-04-16T02:25:56.315Z,97213.09
2023-04-16T02:28:23.226Z,97214.72
2023-04-16T02:30:50.588Z,97220.53
2023-04-16T02:33:18.674Z,97229.03
2023-04-16T02:35:54.677Z,97220.22
2023-04-16T02:38:21.483Z,97219.38
2023-04-16T02:40:48.102Z,97220.63
2023-04-16T02:43:16.141Z,97227.53
2023-04-16T02:45:42.751Z,97224.81
2023-04-16T02:48:09.677Z,97229.97
2023-04-16T02:50:36.170Z,97238.63
2023-04-16T02:53:03.442Z,97236.91
2023-04-16T02:55:29.954Z,97238.50
2023-04-16T02:57:56.570Z,97236.28
2023-04-16T03:00:23.111Z,97228.47
2023-04-16T03:02:49.698Z,97222.41
2023-04-16T03:05:16.337Z,97229.44
2023-04-16T03:07:42.778Z,97227.19
2023-04-16T03:10:10.052Z,97227.38
2023-04-16T03:12:36.568Z,97232.94
2023-04-16T03:15:06.586Z,97231.84
2023-04-16T03:17:33.144Z,97227.03
2023-04-16T03:19:59.741Z,97229.94
2023-04-16T03:22:26.224Z,97234.16
2023-04-16T03:24:52.686Z,97236.09
2023-04-16T03:27:19.190Z,97235.81
2023-04-16T03:29:46.037Z,97237.59
2023-04-16T03:32:12.817Z,97253.94
2023-04-16T03:34:39.386Z,97250.28
2023-04-16T03:37:06.237Z,97256.47
2023-04-16T03:39:34.483Z,97260.72
2023-04-16T03:42:02.173Z,97263.94
2023-04-16T03:44:28.748Z,97271.44
2023-04-16T03:46:55.333Z,97260.34
2023-04-16T03:49:22.736Z,97266.03
2023-04-16T03:51:49.316Z,97269.03
2023-04-16T03:54:16.036Z,97262.19
2023-04-16T03:56:47.365Z,97262.75
2023-04-16T03:59:13.903Z,97271.50
2023-04-16T04:01:40.637Z,97274.72
2023-04-16T04:04:08.144Z,97281.16
2023-04-16T04:06:36.685Z,97272.50
2023-04-16T04:09:03.317Z,97281.81
2023-04-16T04:11:29.857Z,97272.75
2023-04-16T04:13:56.886Z,97272.06
2023-04-16T04:16:23.599Z,97277.81
2023-04-16T04:18:50.395Z,97277.06
2023-04-16T04:21:16.949Z,97282.22
2023-04-16T04:23:43.751Z,97280.06
2023-04-16T04:26:11.354Z,97282.84
2023-04-16T04:28:39.168Z,97282.28
2023-04-16T04:31:05.917Z,97282.63
2023-04-16T04:33:32.410Z,97289.38
2023-04-16T04:35:59.080Z,97286.81
2023-04-16T04:38:26.800Z,97293.59
2023-04-16T04:40:54.153Z,97297.25
2023-04-16T04:43:22.459Z,97298.28
2023-04-16T04:45:50.101Z,97292.75
2023-04-16T04:48:17.500Z,97290.97
2023-04-16T04:50:45.101Z,97302.50
2023-04-16T04:53:12.082Z,97298.47
2023-04-16T04:55:38.889Z,97304.00
2023-04-16T04:58:06.220Z,97312.47
2023-04-16T05:00:34.404Z,97321.41
2023-04-16T05:03:05.330Z,97322.38
2023-04-16T05:05:31.942Z,97328.09
2023-04-16T05:07:58.493Z,97322.75
2023-04-16T05:10:24.989Z,97326.91
2023-04-16T05:12:51.505Z,97327.41
2023-04-16T05:15:18.027Z,97325.63
2023-04-16T05:17:44.524Z,97328.44
2023-04-16T05:20:11.125Z,97332.91
2023-04-16T05:22:37.594Z,97346.19
2023-04-16T05:25:04.184Z,97350.09
2023-04-16T05:27:30.684Z,97355.28
2023-04-16T05:29:57.168Z,97358.50
2023-04-16T05:32:25.757Z,97359.56
2023-04-16T05:34:52.228Z,97364.50
2023-04-16T05:37:18.682Z,97360.69
2023-04-16T05:39:45.288Z,97363.81
2023-04-16T05:42:11.794Z,97364.47
2023-04-16T05:44:38.254Z,97363.41
2023-04-16T05:47:04.676Z,97357.78
2023-04-16T05:49:31.129Z,97363.50
2023-04-16T05:51:57.583Z,97362.97
2023-04-16T05:54:24.288Z,97365.56
2023-04-16T05:56:50.854Z,97370.94
2023-04-16T05:59:17.429Z,97366.63
2023-04-16T06:01:43.943Z,97362.59
2023-04-16T06:04:10.747Z,97361.63
2023-04-16T06:06:37.517Z,97365.19
2023-04-16T06:09:04.174Z,97372.22
2023-04-16T06:11:30.707Z,97373.09
2023-04-16T06:13:57.307Z,97366.59
2023-04-16T06:16:23.833Z,97369.66
2023-04-16T06:18:50.492Z,97368.81
2023-04-16T06:21:17.049Z,97373.03
2023-04-16T06:23:43.456Z,97376.69
2023-04-16T06:26:10.948Z,97373.19
2023-04-16T06:28:37.353Z,97372.41
2023-04-16T06:31:04.373Z,97373.66
2023-04-16T06:33:30.933Z,97382.81
2023-04-16T06:35:57.400Z,97387.41
2023-04-16T06:38:23.934Z,97391.09
2023-04-16T06:40:50.660Z,97381.53
2023-04-16T06:43:17.919Z,97387.13
2023-04-16T06:45:44.895Z,97386.91
2023-04-16T06:48:11.381Z,97380.94
2023-04-16T06:50:37.860Z,97389.66
2023-04-16T06:53:04.312Z,97391.00
2023-04-16T06:55:30.985Z,97385.91
2023-04-16T06:57:57.404Z,97384.63
2023-04-16T07:00:23.932Z,97383.25
2023-04-16T07:02:50.612Z,97386.91
2023-04-16T07:05:17.284Z,97391.50
2023-04-16T07:07:43.803Z,97394.78
2023-04-16T07:10:10.436Z,97391.94
2023-04-16T07:12:36.983Z,97398.03
2023-04-16T07:15:03.567Z,97404.28
2023-04-16T07:17:30.126Z,97394.91
2023-04-16T07:19:56.565Z,97411.03
2023-04-16T07:22:23.296Z,97410.88
2023-04-16T07:24:49.745Z,97410.16
2023-04-16T07:27:17.081Z,97407.56
2023-04-16T07:29:45.608Z,97418.38
2023-04-16T07:32:14.063Z,97416.53
2023-04-16T07:34:41.797Z,97423.25
2023-04-16T07:37:09.025Z,97424.22
2023-04-16T07:39:35.550Z,97423.25
2023-04-16T07:42:02.178Z,97431.22
2023-04-16T07:44:28.640Z,97425.09
2023-04-16T07:46:55.238Z,97430.31
2023-04-16T07:49:21.761Z,97435.84
2023-04-16T07:51:48.272Z,97437.75
2023-04-16T07:54:14.731Z,97435.59
2023-04-16T07:56:41.189Z,97437.47
2023-04-16T07:59:21.035Z,97435.53
2023-04-16T08:01:49.399Z,97434.34
2023-04-16T08:04:20.250Z,97442.22
2023-04-16T08:06:46.786Z,97443.22
2023-04-16T08:09:13.261Z,97452.13
2023-04-16T08:11:39.808Z,97447.59
2023-04-16T08:14:06.296Z,97448.13
2023-04-16T08:16:32.782Z,97454.88
2023-04-16T08:19:01.105Z,97455.38
2023-04-16T08:21:28.085Z,97451.41
2023-04-16T08:23:54.522Z,97447.19
2023-04-16T08:26:21.194Z,97453.59
2023-04-16T08:28:47.664Z,97449.94
2023-04-16T08:31:14.215Z,97455.19
2023-04-16T08:33:40.964Z,97455.97
2023-04-16T08:36:07.476Z,97452.19
2023-04-16T08:38:33.909Z,97450.59
2023-04-16T08:41:02.808Z,97457.50
2023-04-16T08:43:33.303Z,97459.16
2023-04-16T08:46:00.830Z,97463.25
2023-04-16T08:48:29.258Z,97460.38
2023-04-16T08:50:56.377Z,97467.13
2023-04-16T08:53:26.224Z,97472.16
2023-04-16T08:55:53.588Z,97479.06
2023-04-16T08:58:21.790Z,97476.06
2023-04-16T09:00:48.789Z,97477.75
2023-04-16T09:03:15.603Z,97479.66
2023-04-16T09:05:42.643Z,97476.72
2023-04-16T09:08:09.209Z,97479.09
2023-04-16T09:10:35.679Z,97483.91
2023-04-16T09:13:02.225Z,97483.00
2023-04-16T09:15:29.515Z,97482.75
2023-04-16T09:17:57.562Z,97481.94
2023-04-16T09:20:24.590Z,97478.50
2023-04-16T09:22:51.295Z,97484.66
2023-04-16T09:25:20.244Z,97478.25
2023-04-16T09:27:49.313Z,97475.47
2023-04-16T09:30:21.878Z,97482.97
2023-04-16T09:32:49.283Z,97478.28
2023-04-16T09:35:17.147Z,97477.84
2023-04-16T09:37:43.680Z,97479.56
2023-04-16T09:40:10.303Z,97479.56
2023-04-16T09:42:37.267Z,97476.22
2023-04-16T09:45:05.769Z,97481.75
2023-04-16T09:47:43.122Z,97480.81
2023-04-16T09:50:12.431Z,97484.97
2023-04-16T09:52:39.488Z,97475.69
2023-04-16T09:55:06.303Z,97472.38
2023-04-16T09:57:32.858Z,97470.19
2023-04-16T10:00:03.057Z,97472.38
2023-04-16T10:02:31.689Z,97468.31
2023-04-16T10:05:00.727Z,97469.28
2023-04-16T10:07:33.604Z,97464.34
2023-04-16T10:10:00.164Z,97462.94
2023-04-16T10:12:28.770Z,97458.94
2023-04-16T10:14:55.279Z,97462.75
2023-04-16T10:17:21.972Z,97470.28
2023-04-16T10:19:48.740Z,97460.38
2023-04-16T10:22:15.237Z,97462.53
2023-04-16T10:24:41.944Z,97455.78
2023-04-16T10:27:08.407Z,97458.34
2023-04-16T10:29:35.170Z,97449.69
2023-04-16T10:32:02.097Z,97451.69
2023-04-16T10:34:29.131Z,97440.97
2023-04-16T10:36:56.028Z,97443.50
2023-04-16T10:39:23.633Z,97453.72
2023-04-16T10:41:50.805Z,97449.03
2023-04-16T10:44:18.628Z,97445.25
2023-04-16T10:46:49.412Z,97449.47
2023-04-16T10:49:19.951Z,97435.28
2023-04-16T10:51:59.615Z,97438.81
2023-04-16T10:54:27.448Z,97440.06
2023-04-16T10:56:56.058Z,97433.94
2023-04-16T10:59:23.303Z,97432.16
2023-04-16T11:01:54.462Z,97428.56
2023-04-16T11:04:23.986Z,97424.50
2023-04-16T11:07:19.510Z,97424.25
2023-04-16T11:09:56.595Z,97428.88
2023-04-16T11:12:27.701Z,97432.41
2023-04-16T11:15:14.445Z,97430.31
2023-04-16T11:17:43.040Z,97426.59
2023-04-16T11:20:19.150Z,97423.53
2023-04-16T11:22:47.163Z,97428.59
2023-04-16T11:25:19.030Z,97432.88
2023-04-16T11:27:45.482Z,97429.81
2023-04-16T11:30:12.145Z,97427.25
2023-04-16T11:32:38.975Z,97428.03
2023-04-16T11:35:13.664Z,97424.06
2023-04-16T11:37:40.336Z,97430.59
2023-04-16T11:40:08.165Z,97423.38
2023-04-16T11:42:37.279Z,97415.56
2023-04-16T11:45:04.792Z,97424.66
2023-04-16T11:47:32.037Z,97418.06
2023-04-16T11:49:58.919Z,97414.56
2023-04-16T11:52:33.263Z,97419.75
2023-04-16T11:54:59.868Z,97424.69
2023-04-16T11:57:27.467Z,97417.41
2023-04-16T12:00:02.611Z,97417.19
2023-04-16T12:02:54.851Z,97411.69
2023-04-16T12:05:30.621Z,97418.91
2023-04-16T12:07:58.109Z,97409.00
2023-04-16T12:10:24.863Z,97405.69
2023-04-16T12:12:53.184Z,97407.25
2023-04-16T12:15:20.332Z,97413.19
2023-04-16T12:17:47.831Z,97406.13
2023-04-16T12:20:15.434Z,97401.09
2023-04-16T12:22:46.970Z,97406.78
2023-04-16T12:25:15.090Z,97403.72
2023-04-16T12:27:43.139Z,97408.75
2023-04-16T12:30:09.768Z,97409.84
2023-04-16T12:32:36.466Z,97406.50
2023-04-16T12:35:03.100Z,97402.50
2023-04-16T12:37:29.508Z,97406.63
2023-04-16T12:39:56.048Z,97408.06
2023-04-16T12:42:22.556Z,97398.00
2023-04-16T12:44:49.064Z,97407.91
2023-04-16T12:47:15.648Z,97402.84
2023-04-16T12:49:42.348Z,97396.88
2023-04-16T12:52:09.013Z,97404.84
2023-04-16T12:54:35.667Z,97401.34
2023-04-16T12:57:02.116Z,97399.34
2023-04-16T12:59:28.588Z,97400.59
2023-04-16T13:01:55.292Z,97401.31
2023-04-16T13:04:25.648Z,97395.38
2023-04-16T13:06:52.541Z,97395.44
2023-04-16T13:09:20.225Z,97395.56
2023-04-16T13:11:46.785Z,97399.56
2023-04-16T13:14:13.305Z,97399.22
2023-04-16T13:16:39.748Z,97395.34
2023-04-16T13:19:06.278Z,97397.22
2023-04-16T13:21:33.424Z,97399.75
2023-04-16T13:23:59.950Z,97401.84
2023-04-16T13:26:26.736Z,97397.25
2023-04-16T13:28:53.177Z,97400.94
2023-04-16T13:31:22.017Z,97408.19
2023-04-16T13:33:48.673Z,97405.09
2023-04-16T13:36:15.297Z,97407.25
2023-04-16T13:38:42.270Z,97408.72
2023-04-16T13:41:08.806Z,97410.88
2023-04-16T13:43:37.123Z,97417.06
2023-04-16T13:46:03.670Z,97415.94
2023-04-16T13:48:30.237Z,97414.44
2023-04-16T13:50:56.698Z,97416.72
2023-04-16T13:53:23.188Z,97420.38
2023-04-16T13:55:49.628Z,97428.22
2023-04-16T13:58:16.308Z,97422.16
2023-04-16T14:00:43.121Z,97425.00
2023-04-16T14:03:09.706Z,97430.94
2023-04-16T14:05:36.193Z,97431.31
2023-04-16T14:08:02.624Z,97430.28
2023-04-16T14:10:31.099Z,97431.59
2023-04-16T14:12:57.747Z,97433.13
2023-04-16T14:15:26.696Z,97430.97
2023-04-16T14:17:53.806Z,97425.81
2023-04-16T14:20:20.731Z,97423.59
2023-04-16T14:22:47.325Z,97422.72
2023-04-16T14:25:13.820Z,97420.56
2023-04-16T14:27:41.249Z,97421.84
2023-04-16T14:30:07.978Z,97425.91
2023-04-16T14:32:34.516Z,97423.38
2023-04-16T14:35:01.098Z,97430.84
2023-04-16T14:37:27.655Z,97422.66
2023-04-16T14:39:54.194Z,97428.91
2023-04-16T14:42:20.844Z,97426.59
2023-04-16T14:44:47.306Z,97427.53
2023-04-16T14:47:13.965Z,97423.72
2023-04-16T14:49:40.623Z,97419.63
2023-04-16T14:52:07.342Z,97420.78
2023-04-16T14:54:34.034Z,97423.00
2023-04-16T14:57:01.896Z,97421.75
2023-04-16T14:59:28.732Z,97425.50
2023-04-16T15:01:55.535Z,97433.34
2023-04-16T15:04:22.192Z,97434.91
2023-04-16T15:06:49.881Z,97428.59
2023-04-16T15:09:16.412Z,97434.56
2023-04-16T15:11:42.842Z,97435.31
2023-04-16T15:14:09.549Z,97442.75
2023-04-16T15:16:36.383Z,97442.78
2023-04-16T15:19:05.169Z,97442.16
2023-04-16T15:21:31.809Z,97439.63
2023-04-16T15:23:58.294Z,97455.19
2023-04-16T15:26:24.811Z,97449.16
2023-04-16T15:28:51.244Z,97449.41
2023-04-16T15:31:17.749Z,97454.44
2023-04-16T15:33:44.258Z,97452.25
2023-04-16T15:36:11.314Z,97451.09
2023-04-16T15:38:37.789Z,97455.75
2023-04-16T15:41:04.232Z,97449.44
2023-04-16T15:43:30.777Z,97453.44
2023-04-16T15:45:57.372Z,97460.66
2023-04-16T15:48:24.403Z,97457.25
2023-04-16T15:50:51.451Z,97466.97
2023-04-16T15:53:18.047Z,97474.91
2023-04-16T15:55:44.566Z,97477.91
2023-04-16T15:58:11.196Z,97480.63
2023-04-16T16:00:37.650Z,97480.63
2023-04-16T16:03:04.403Z,97481.31
2023-04-16T16:05:31.364Z,97480.81
2023-04-16T16:07:58.171Z,97479.06
2023-04-16T16:10:24.731Z,97486.63
2023-04-16T16:12:51.237Z,97474.34
2023-04-16T16:15:17.702Z,97487.72
2023-04-16T16:17:44.213Z,97490.38
2023-04-16T16:20:10.843Z,97498.53
2023-04-16T16:22:38.227Z,97491.72
2023-04-16T16:25:05.625Z,97498.16
2023-04-16T16:27:32.112Z,97495.59
2023-04-16T16:30:00.789Z,97502.16
2023-04-16T16:32:27.486Z,97506.53
2023-04-16T16:34:54.110Z,97505.38
2023-04-16T16:37:20.648Z,97509.25
2023-04-16T16:39:47.128Z,97503.38
2023-04-16T16:42:16.618Z,97511.63
2023-04-16T16:44:43.082Z,97506.59
2023-04-16T16:47:09.634Z,97508.56
2023-04-16T16:49:36.341Z,97509.75
2023-04-16T16:52:02.823Z,97510.31
2023-04-16T16:54:29.308Z,97504.19
2023-04-16T16:56:56.684Z,97504.06
2023-04-16T16:59:23.142Z,97502.22
2023-04-16T17:01:49.707Z,97513.69
2023-04-16T17:04:19.355Z,97520.09
2023-04-16T17:06:46.806Z,97513.16
2023-04-16T17:09:13.690Z,97503.19
2023-04-16T17:11:40.394Z,97511.28
2023-04-16T17:14:06.929Z,97517.84
2023-04-16T17:16:33.495Z,97526.63
2023-04-16T17:19:01.246Z,97524.81
2023-04-16T17:21:27.933Z,97520.59
2023-04-16T17:23:54.599Z,97513.91
2023-04-16T17:26:21.204Z,97514.59
2023-04-16T17:28:47.679Z,97514.25
2023-04-16T17:31:15.070Z,97522.97
2023-04-16T17:33:41.549Z,97527.84
2023-04-16T17:36:08.037Z,97532.59
2023-04-16T17:38:34.621Z,97535.78
2023-04-16T17:41:01.281Z,97531.25
2023-04-16T17:43:28.452Z,97531.59
2023-04-16T17:45:54.935Z,97534.25
2023-04-16T17:48:21.388Z,97539.00
2023-04-16T17:50:48.554Z,97539.41
2023-04-16T17:53:15.621Z,97543.38
2023-04-16T17:55:49.816Z,97553.06
2023-04-16T17:58:16.315Z,97556.50
2023-04-16T18:00:43.245Z,97554.66
2023-04-16T18:03:11.491Z,97552.44
2023-04-16T18:05:38.158Z,97554.13
2023-04-16T18:08:04.792Z,97556.06
2023-04-16T18:10:32.751Z,97557.19
2023-04-16T18:12:59.223Z,97557.97
2023-04-16T18:15:25.782Z,97567.84
2023-04-16T18:17:52.293Z,97566.44
2023-04-16T18:20:19.681Z,97570.56
2023-04-16T18:22:46.196Z,97573.03
2023-04-16T18:25:12.697Z,97573.44
2023-04-16T18:27:39.366Z,97574.22
2023-04-16T18:30:06.329Z,97577.00
2023-04-16T18:32:33.366Z,97573.66
2023-04-16T18:35:00.317Z,97578.50
2023-04-16T18:37:27.102Z,97585.56
2023-04-16T18:39:54.020Z,97588.47
2023-04-16T18:42:21.277Z,97594.75
2023-04-16T18:44:54.183Z,97592.97
2023-04-16T18:47:20.856Z,97592.22
2023-04-16T18:49:47.361Z,97594.94
2023-04-16T18:52:13.852Z,97594.81
2023-04-16T18:54:40.950Z,97604.44
2023-04-16T18:57:07.417Z,97596.75
2023-04-16T18:59:33.921Z,97592.22
2023-04-16T19:02:00.465Z,97596.75
2023-04-16T19:04:26.959Z,97587.91
2023-04-16T19:06:53.513Z,97594.97
2023-04-16T19:09:20.273Z,97597.16
2023-04-16T19:11:47.808Z,97590.78
2023-04-16T19:14:14.239Z,97594.50
2023-04-16T19:16:40.847Z,97597.03
2023-04-16T19:19:07.424Z,97594.47
2023-04-16T19:21:34.182Z,97592.50
2023-04-16T19:24:01.018Z,97592.91
2023-04-16T19:26:27.974Z,97589.88
2023-04-16T19:28:54.463Z,97594.06
2023-04-16T19:31:21.339Z,97597.34
2023-04-16T19:33:47.800Z,97595.66
2023-04-16T19:36:14.268Z,97592.50
2023-04-16T19:38:40.758Z,97589.75
2023-04-16T19:41:07.222Z,97587.78
2023-04-16T19:43:34.161Z,97588.94
2023-04-16T19:46:00.734Z,97584.13
2023-04-16T19:48:27.282Z,97589.47
2023-04-16T19:50:53.907Z,97585.28
2023-04-16T19:53:21.404Z,97590.44
2023-04-16T19:55:47.844Z,97593.19
2023-04-16T19:58:14.664Z,97588.38
2023-04-16T20:00:41.994Z,97587.75
2023-04-16T20:03:09.045Z,97585.34
2023-04-16T20:05:35.636Z,97589.19
2023-04-16T20:08:02.199Z,97589.66
2023-04-16T20:10:29.383Z,97587.06
2023-04-16T20:12:55.921Z,97585.06
2023-04-16T20:15:22.447Z,97589.41
2023-04-16T20:17:49.069Z,97591.97
2023-04-16T20:20:16.404Z,97587.66
2023-04-16T20:22:43.656Z,97589.66
2023-04-16T20:25:10.532Z,97589.50
2023-04-16T20:27:37.154Z,97584.84
2023-04-16T20:30:05.379Z,97583.00
2023-04-16T20:32:31.892Z,97580.66
2023-04-16T20:34:58.376Z,97582.28
2023-04-16T20:37:24.864Z,97569.53
2023-04-16T20:39:54.123Z,97572.50
2023-04-16T20:42:22.142Z,97568.59
2023-04-16T20:44:56.376Z,97563.53
2023-04-16T20:47:23.344Z,97566.66
2023-04-16T20:49:49.876Z,97559.66
2023-04-16T20:52:16.739Z,97559.59
2023-04-16T20:54:43.494Z,97558.28
2023-04-16T20:57:09.986Z,97552.91
2023-04-16T20:59:36.942Z,97562.28
2023-04-16T21:02:03.540Z,97555.97
2023-04-16T21:04:30.427Z,97552.09
2023-04-16T21:06:57.228Z,97562.22
2023-04-16T21:09:23.757Z,97553.03
2023-04-16T21:11:50.275Z,97551.69
2023-04-16T21:14:16.743Z,97558.09
2023-04-16T21:16:43.189Z,97559.72
2023-04-16T21:19:09.958Z,97561.34
2023-04-16T21:21:38.214Z,97562.91
2023-04-16T21:24:04.790Z,97561.81
2023-04-16T21:26:31.248Z,97559.81
2023-04-16T21:28:57.827Z,97556.34
2023-04-16T21:31:24.316Z,97561.50
2023-04-16T21:33:50.911Z,97563.81
2023-04-16T21:36:17.369Z,97561.19
2023-04-16T21:38:43.831Z,97559.09
2023-04-16T21:41:10.403Z,97561.13
2023-04-16T21:43:36.882Z,97557.53
2023-04-16T21:46:03.391Z,97558.50
2023-04-16T21:48:29.924Z,97562.94
2023-04-16T21:50:58.073Z,97562.78
2023-04-16T21:53:25.490Z,97561.81
2023-04-16T21:55:52.254Z,97559.41
2023-04-16T21:58:18.783Z,97552.03
2023-04-16T22:00:45.489Z,97555.75
2023-04-16T22:03:12.441Z,97557.81
2023-04-16T22:05:39.193Z,97561.66
2023-04-16T22:08:23.232Z,97558.56
2023-04-16T22:10:51.197Z,97550.31
2023-04-16T22:13:17.827Z,97550.56
2023-04-16T22:15:44.381Z,97560.31
2023-04-16T22:18:11.457Z,97553.56
2023-04-16T22:20:38.942Z,97550.28
2023-04-16T22:23:06.178Z,97552.97
2023-04-16T22:25:32.969Z,97552.59
2023-04-16T22:28:00.756Z,97542.78
2023-04-16T22:30:27.341Z,97539.31
2023-04-16T22:32:53.972Z,97545.75
2023-04-16T22:35:20.521Z,97543.28
2023-04-16T22:37:47.000Z,97546.25
2023-04-16T22:40:13.502Z,97542.59
2023-04-16T22:42:40.001Z,97543.06
2023-04-16T22:45:07.340Z,97548.16
2023-04-16T22:47:33.846Z,97547.38
2023-04-16T22:50:00.511Z,97544.84
2023-04-16T22:52:27.474Z,97550.75
2023-04-16T22:54:54.007Z,97549.66
2023-04-16T22:57:25.674Z,97544.72
2023-04-16T22:59:53.092Z,97553.22
2023-04-16T23:02:20.181Z,97549.22
2023-04-16T23:04:47.954Z,97548.28
2023-04-16T23:07:15.107Z,97542.81
2023-04-16T23:09:41.634Z,97540.25
2023-04-16T23:12:08.235Z,97532.50
2023-04-16T23:14:35.181Z,97534.13
2023-04-16T23:17:01.918Z,97538.88
2023-04-16T23:19:28.801Z,97543.38
2023-04-16T23:21:55.266Z,97540.66
2023-04-16T23:24:21.772Z,97530.16
2023-04-16T23:26:48.313Z,97534.91
2023-04-16T23:29:14.735Z,97526.28
2023-04-16T23:31:41.211Z,97519.97
2023-04-16T23:34:07.772Z,97527.31
2023-04-16T23:36:34.253Z,97521.13
2023-04-16T23:39:00.750Z,97523.06
2023-04-16T23:41:27.205Z,97517.34
2023-04-16T23:43:53.842Z,97514.22
2023-04-16T23:46:20.482Z,97510.38
2023-04-16T23:48:46.955Z,97509.34
2023-04-16T23:51:13.465Z,97512.13
2023-04-16T23:53:40.830Z,97510.22
2023-04-16T23:56:07.852Z,97508.22
2023-04-16T23:58:34.309Z,97505.09
